BBC Polonia — V2EZ6 — position and weather

sailwx.info

Track history (hours):
 
Tides and Currents Weather Stations Pressure Air Temp Water Temp Dewpoint Dewpoint Depression Visibility Wind Speed Wind Dir Waves Ship Positions

BBC Polonia

Last reported at 2014-Oct-17 19:20 UTC. Time now 2014-Oct-21 21:39 UTC.
Position S 11°12' E 129°33'.

Length 123 m; draft 6.3 m.

Type: Cargo ship. MMSI: 305614000.

Date/timePositionNaut miles runAvg speedWind from/ knotsBaromVisibWave heightAir tempDewpointWater temp
2014-Oct-17 19:20S 11°12' E 129°33'1113.2
2014-Oct-17 18:30S 11°07' E 129°43'1213.1
2014-Oct-17 17:33S 11°02' E 129°54'1313.2
2014-Oct-17 16:33S 11°01' E 130°08'1313.2
2014-Oct-17 15:33S 10°60' E 130°21'1313.3
2014-Oct-17 14:33S 10°59' E 130°35'1313.2
2014-Oct-17 13:33S 10°58' E 130°48'1313.2
2014-Oct-17 12:33S 10°57' E 131°01'3013.4
2014-Oct-17 10:21S 10°55' E 131°31'  
2014-Oct-08 04:32S 23°12' E 151°40'1111.5
2014-Oct-08 03:33S 23°07' E 151°51'  
Track history (hours):
 
Tides and Currents Weather Stations Pressure Air Temp Water Temp Dewpoint Dewpoint Depression Visibility Wind Speed Wind Dir Waves Ship Positions

BBC Polonia

Last reported at 2014-Oct-17 19:20 UTC. Time now 2014-Oct-21 21:39 UTC.
Position S 11°12' E 129°33'.

Length 123 m; draft 6.3 m.

Type: Cargo ship. MMSI: 305614000.

Date/timePositionNaut miles runAvg speedWind from/ knotsBaromVisibWave heightAir tempDewpointWater temp
2014-Oct-17 19:20S 11°12' E 129°33'1113.2
2014-Oct-17 18:30S 11°07' E 129°43'1213.1
2014-Oct-17 17:33S 11°02' E 129°54'1313.2
2014-Oct-17 16:33S 11°01' E 130°08'1313.2
2014-Oct-17 15:33S 10°60' E 130°21'1313.3
2014-Oct-17 14:33S 10°59' E 130°35'1313.2
2014-Oct-17 13:33S 10°58' E 130°48'1313.2
2014-Oct-17 12:33S 10°57' E 131°01'3013.4
2014-Oct-17 10:21S 10°55' E 131°31'  
2014-Oct-08 04:32S 23°12' E 151°40'1111.5
2014-Oct-08 03:33S 23°07' E 151°51'  

Dump ship's entire track history